Time;durP1;ratioP1;P1;durP2;ratioP2;P2;SDS_P1;SDS_P2;PMS_P1;PMS_P2;Temp;Humidity;BMP_temperature;BMP_pressure;BME280_temperature;BME280_humidity;BME280_pressure;Samples;Min_cycle;Max_cycle;Signal;HPM_P1;HPM_P2
2023/02/03 00:01:13;;;;;;;10.10;1.77;;;;;;;8.43;100.00;101920.88;4992557;28;20026;-92
2023/02/03 00:03:39;;;;;;;16.05;2.00;;;;;;;8.28;100.00;101917.75;4992236;28;20456;-92
2023/02/03 00:06:05;;;;;;;11.95;1.58;;;;;;;8.26;100.00;101914.38;4992954;28;20033;-93
2023/02/03 00:08:31;;;;;;;11.75;2.10;;;;;;;8.34;100.00;101934.78;4994400;28;20491;-92
2023/02/03 00:10:58;;;;;;;19.20;2.00;;;;;;;8.45;100.00;101929.41;4992826;28;20029;-92
2023/02/03 00:13:25;;;;;;;16.23;1.63;;;;;;;8.40;100.00;101924.38;4992855;28;20022;-92
2023/02/03 00:15:51;;;;;;;12.48;1.45;;;;;;;8.42;100.00;101920.03;4992715;28;20038;-92
2023/02/03 00:18:16;;;;;;;16.80;2.80;;;;;;;8.43;100.00;101915.72;4992245;28;20420;-92
2023/02/03 00:20:42;;;;;;;12.85;1.65;;;;;;;8.47;100.00;101918.19;4993880;28;20420;-92
2023/02/03 00:23:09;;;;;;;11.40;1.55;;;;;;;8.68;100.00;101921.09;4993938;28;20073;-92
2023/02/03 00:25:35;;;;;;;13.90;1.73;;;;;;;8.65;100.00;101922.00;4992516;28;20424;-93
2023/02/03 00:28:02;;;;;;;8.10;1.48;;;;;;;8.55;100.00;101905.97;4993666;28;20106;-92
2023/02/03 00:30:28;;;;;;;10.43;1.58;;;;;;;8.67;100.00;101912.53;4993618;28;20395;-92
2023/02/03 00:32:54;;;;;;;10.30;1.40;;;;;;;8.58;100.00;101905.03;4993091;28;20026;-93
2023/02/03 00:35:19;;;;;;;10.60;2.35;;;;;;;8.48;100.00;101911.31;4990751;28;20477;-92
2023/02/03 00:37:53;;;;;;;13.52;1.95;;;;;;;8.43;100.00;101895.13;4992784;28;20038;-92
2023/02/03 00:40:20;;;;;;;9.95;1.52;;;;;;;8.43;100.00;101898.53;4993679;28;20031;-92
2023/02/03 00:42:46;;;;;;;8.85;1.55;;;;;;;8.49;100.00;101893.25;4992171;28;20018;-92
2023/02/03 00:45:11;;;;;;;7.65;1.00;;;;;;;8.50;100.00;101887.22;4992171;28;20112;-92
2023/02/03 00:47:37;;;;;;;7.97;1.63;;;;;;;8.44;100.00;101886.56;4993557;28;20030;-91
2023/02/03 00:50:04;;;;;;;11.05;1.65;;;;;;;8.37;100.00;101880.69;4991760;28;20034;-92
2023/02/03 00:52:30;;;;;;;10.18;1.30;;;;;;;8.41;100.00;101877.16;4991932;28;20038;-92
2023/02/03 00:54:55;;;;;;;14.57;1.40;;;;;;;8.46;100.00;101874.47;4993306;28;20301;-93
2023/02/03 00:57:21;;;;;;;12.48;1.77;;;;;;;8.40;100.00;101861.78;4993170;28;20117;-91
2023/02/03 00:59:46;;;;;;;11.85;1.27;;;;;;;8.43;100.00;101875.38;4993167;28;20366;-92
2023/02/03 01:02:12;;;;;;;11.25;1.67;;;;;;;8.45;100.00;101865.91;4993282;28;20034;-92
2023/02/03 01:04:37;;;;;;;11.10;1.30;;;;;;;8.42;100.00;101863.44;4991237;28;20076;-92
2023/02/03 01:07:03;;;;;;;8.55;1.92;;;;;;;8.40;100.00;101854.06;4993058;28;20030;-92
2023/02/03 01:09:31;;;;;;;10.35;1.35;;;;;;;8.48;100.00;101857.25;4993109;28;20026;-92
2023/02/03 01:11:57;;;;;;;10.52;1.95;;;;;;;8.42;100.00;101845.41;4992956;28;20072;-92
2023/02/03 01:14:22;;;;;;;11.50;1.25;;;;;;;8.54;100.00;101857.13;4992896;28;20431;-92
2023/02/03 01:16:48;;;;;;;10.02;1.30;;;;;;;8.46;100.00;101852.19;4992969;28;20037;-92
2023/02/03 01:19:13;;;;;;;13.02;2.17;;;;;;;8.49;100.00;101841.81;4992287;28;20109;-92
2023/02/03 01:21:39;;;;;;;13.38;3.28;;;;;;;8.53;100.00;101851.13;4991570;28;20027;-92
2023/02/03 01:24:04;;;;;;;16.40;2.40;;;;;;;8.42;100.00;101835.13;4992642;28;20042;-92
2023/02/03 01:26:30;;;;;;;11.15;1.25;;;;;;;8.44;100.00;101840.25;4992746;28;20051;-93
2023/02/03 01:28:58;;;;;;;7.43;0.90;;;;;;;8.47;100.00;101842.72;4992643;28;20109;-92
2023/02/03 01:31:30;;;;;;;7.32;2.42;;;;;;;8.44;100.00;101832.53;4992632;28;20022;-92
2023/02/03 01:33:56;;;;;;;15.80;2.08;;;;;;;8.33;100.00;101822.47;4992468;28;20484;-93
2023/02/03 01:36:24;;;;;;;11.40;1.02;;;;;;;8.40;100.00;101806.00;4990584;28;20053;-92
2023/02/03 01:38:50;;;;;;;9.73;0.95;;;;;;;8.44;100.00;101817.09;4993048;28;20022;-93
2023/02/03 01:41:19;;;;;;;6.65;1.00;;;;;;;8.50;100.00;101840.06;4992740;28;20041;-91
2023/02/03 01:43:48;;;;;;;8.60;0.90;;;;;;;8.41;100.00;101827.44;4992743;28;20026;-91
2023/02/03 01:46:31;;;;;;;11.63;2.08;;;;;;;8.36;100.00;101842.94;4992624;28;20066;-92
2023/02/03 01:49:12;;;;;;;8.50;1.88;;;;;;;8.40;100.00;101826.59;4992482;28;20487;-92
2023/02/03 01:51:41;;;;;;;11.85;1.67;;;;;;;8.46;100.00;101843.59;4990815;28;20395;-93
2023/02/03 01:54:18;;;;;;;12.23;1.92;;;;;;;8.40;100.00;101834.31;4991969;28;20026;-92
2023/02/03 01:56:50;;;;;;;9.73;1.38;;;;;;;8.39;100.00;101837.75;4992668;28;20030;-92
2023/02/03 01:59:17;;;;;;;;;;;;;;;8.50;100.00;101861.50;4992957;28;20032;-92
2023/02/03 02:01:44;;;;;;;15.13;2.03;;;;;;;8.37;100.00;101844.66;4991159;28;19936;-92
2023/02/03 02:04:10;;;;;;;16.60;2.72;;;;;;;8.34;100.00;101853.31;4992314;28;20030;-92
2023/02/03 02:06:36;;;;;;;12.57;1.17;;;;;;;8.25;100.00;101850.13;4992317;28;20034;-91
2023/02/03 02:09:02;;;;;;;13.48;1.65;;;;;;;8.26;100.00;101850.06;4991497;28;20037;-92
2023/02/03 02:11:27;;;;;;;6.15;1.27;;;;;;;8.35;100.00;101851.56;4992346;28;20026;-92
2023/02/03 02:13:57;;;;;;;11.57;1.67;;;;;;;8.54;100.00;101877.72;4992203;28;20384;-92
2023/02/03 02:16:51;;;;;;;10.98;1.25;;;;;;;8.51;100.00;101863.19;4992224;28;20125;-91
2023/02/03 02:19:55;;;;;;;8.52;1.45;;;;;;;8.45;100.00;101855.63;4992442;28;20034;-92
2023/02/03 02:22:35;;;;;;;9.35;1.23;;;;;;;8.55;100.00;101869.09;4990516;28;20030;-92
2023/02/03 02:25:32;;;;;;;14.63;1.40;;;;;;;8.53;100.00;101861.44;4992120;28;20489;-92
2023/02/03 02:28:41;;;;;;;6.78;1.17;;;;;;;8.33;100.00;101848.19;4956640;28;20043;-92
2023/02/03 02:31:25;;;;;;;9.52;1.38;;;;;;;8.36;100.00;101869.56;4990700;28;20023;-92
2023/02/03 02:33:58;;;;;;;11.15;2.15;;;;;;;8.52;100.00;101870.00;4992224;28;20033;-92
2023/02/03 02:36:29;;;;;;;13.95;1.73;;;;;;;8.56;100.00;101876.78;4992245;28;20023;-92
2023/02/03 02:39:04;;;;;;;12.23;1.42;;;;;;;8.46;100.00;101877.91;4991332;28;20034;-92
2023/02/03 02:41:45;;;;;;;9.38;1.40;;;;;;;8.43;100.00;101879.69;4990682;28;20038;-92
2023/02/03 02:44:20;;;;;;;10.52;2.72;;;;;;;8.54;100.00;101888.00;4992048;28;20038;-92
2023/02/03 02:46:50;;;;;;;6.43;1.00;;;;;;;8.49;100.00;101879.56;4992275;28;20027;-92
2023/02/03 02:49:42;;;;;;;8.25;0.70;;;;;;;8.63;100.00;101881.75;4992115;28;20046;-92
2023/02/03 02:52:10;;;;;;;10.40;1.63;;;;;;;8.64;100.00;101873.16;4989867;28;20034;-91
2023/02/03 02:54:39;;;;;;;7.60;1.27;;;;;;;8.63;100.00;101881.75;4990496;28;20045;-92
2023/02/03 02:57:08;;;;;;;7.22;1.33;;;;;;;8.59;100.00;101885.31;4990829;28;20026;-91
2023/02/03 02:59:34;;;;;;;10.95;1.27;;;;;;;8.52;100.00;101874.31;4990778;28;20488;-92
2023/02/03 03:01:59;;;;;;;9.48;0.90;;;;;;;8.50;100.00;101886.38;4994168;28;20118;-92
2023/02/03 03:04:29;;;;;;;7.50;1.50;;;;;;;8.52;100.00;101870.00;4994149;28;20027;-92
2023/02/03 03:07:00;;;;;;;4.82;1.13;;;;;;;8.63;100.00;101879.19;4994627;28;20042;-92
2023/02/03 03:09:28;;;;;;;7.70;1.17;;;;;;;8.59;100.00;101888.72;4993119;28;20033;-92
2023/02/03 03:12:00;;;;;;;9.25;1.58;;;;;;;8.39;100.00;101889.22;4994384;28;20118;-92
2023/02/03 03:14:29;;;;;;;9.40;1.83;;;;;;;8.45;100.00;101904.50;4993958;28;20022;-92
2023/02/03 03:17:09;;;;;;;12.27;1.35;;;;;;;8.31;100.00;101866.22;4994494;28;20034;-92
2023/02/03 03:19:41;;;;;;;6.57;1.00;;;;;;;8.43;100.00;101875.38;4983315;28;20113;-92
2023/02/03 03:22:10;;;;;;;11.38;1.50;;;;;;;8.32;100.00;101888.50;4993890;28;20073;-91
2023/02/03 03:25:02;;;;;;;8.00;0.90;;;;;;;8.20;100.00;101885.41;4994968;28;20034;-92
2023/02/03 03:27:38;;;;;;;10.30;1.23;;;;;;;8.30;100.00;101879.13;4993707;28;20034;-91
2023/02/03 03:30:11;;;;;;;12.82;2.60;;;;;;;8.33;100.00;101861.03;4995095;28;20034;-92
2023/02/03 03:32:37;;;;;;;9.23;1.38;;;;;;;8.34;100.00;101875.63;4993583;28;20046;-92
2023/02/03 03:35:04;;;;;;;12.98;1.60;;;;;;;8.43;100.00;101890.00;4994526;28;20033;-92
2023/02/03 03:37:37;;;;;;;10.38;2.20;;;;;;;8.33;100.00;101879.06;4991863;28;20049;-93
2023/02/03 03:40:32;;;;;;;16.83;2.55;;;;;;;8.27;100.00;101885.19;4994751;28;20499;-92
2023/02/03 03:43:05;;;;;;;15.48;1.40;;;;;;;8.29;100.00;101880.00;4993827;28;20050;-92
2023/02/03 03:45:41;;;;;;;10.02;1.13;;;;;;;8.35;100.00;101892.72;4994671;28;20389;-92
2023/02/03 03:48:19;;;;;;;6.65;1.17;;;;;;;8.28;100.00;101881.75;4994475;28;20058;-92
2023/02/03 03:51:14;;;;;;;10.43;1.20;;;;;;;8.37;100.00;101888.41;4993888;28;20061;-92
2023/02/03 03:53:42;;;;;;;12.20;1.38;;;;;;;8.32;100.00;101867.94;4988293;28;20045;-92
2023/02/03 03:56:13;;;;;;;8.32;1.88;;;;;;;8.38;100.00;101887.50;4994558;28;20097;-92
2023/02/03 03:58:45;;;;;;;8.80;1.20;;;;;;;8.32;100.00;101888.50;4994143;28;20058;-92
2023/02/03 04:01:13;;;;;;;7.25;1.65;;;;;;;8.37;100.00;101896.13;4994275;28;20424;-93
2023/02/03 04:03:54;;;;;;;14.30;1.90;;;;;;;8.39;100.00;101899.50;4994410;28;20026;-92
2023/02/03 04:06:20;;;;;;;10.55;1.55;;;;;;;8.32;100.00;101897.97;4992774;28;20377;-92
2023/02/03 04:08:45;;;;;;;12.18;1.42;;;;;;;8.33;100.00;101904.78;4993925;28;20679;-92
2023/02/03 04:11:59;;;;;;;16.38;1.70;;;;;;;8.28;100.00;101896.34;4994069;28;20031;-92
2023/02/03 04:13:56;;;;;;;11.38;1.10;;;;;;;8.27;100.00;101897.22;4993723;28;20473;-91
2023/02/03 04:16:21;;;;;;;11.65;1.42;;;;;;;8.20;100.00;101904.25;4994172;28;20026;-91
2023/02/03 04:18:47;;;;;;;13.85;2.35;;;;;;;8.23;100.00;101891.28;4993828;28;20034;-92
2023/02/03 04:21:12;;;;;;;12.77;2.00;;;;;;;8.24;100.00;101907.56;4991935;28;20464;-93
2023/02/03 04:23:38;;;;;;;7.63;1.33;;;;;;;8.22;100.00;101905.06;4993640;28;20034;-92
2023/02/03 04:26:03;;;;;;;9.38;1.73;;;;;;;8.28;100.00;101911.75;4993877;28;20022;-92
2023/02/03 04:28:29;;;;;;;15.27;1.67;;;;;;;8.29;100.00;101923.72;4992481;28;20472;-92
2023/02/03 04:30:54;;;;;;;13.05;1.88;;;;;;;8.32;100.00;101918.53;4992602;28;20030;-92
2023/02/03 04:33:20;;;;;;;13.52;2.15;;;;;;;8.36;100.00;101943.28;4993567;28;20030;-92
2023/02/03 04:35:45;;;;;;;15.05;2.58;;;;;;;8.33;100.00;101933.06;4988996;28;20041;-92
2023/02/03 04:38:11;;;;;;;10.88;1.70;;;;;;;8.26;100.00;101922.09;4993402;28;20046;-92
2023/02/03 04:40:36;;;;;;;16.02;2.28;;;;;;;8.23;100.00;101934.19;4993623;28;20491;-93
2023/02/03 04:43:06;;;;;;;11.88;2.28;;;;;;;8.26;100.00;101913.53;4993349;28;20037;-91
2023/02/03 04:45:32;;;;;;;10.35;1.92;;;;;;;8.36;100.00;101922.69;4993595;28;20124;-92
2023/02/03 04:47:57;;;;;;;15.32;2.35;;;;;;;8.30;100.00;101915.16;4993796;28;20161;-93
2023/02/03 04:50:22;;;;;;;19.23;2.05;;;;;;;8.16;100.00;101923.19;4991628;28;20464;-92
2023/02/03 04:52:48;;;;;;;18.65;3.67;;;;;;;8.20;100.00;101929.97;4993192;28;20063;-92
2023/02/03 04:55:13;;;;;;;13.05;2.72;;;;;;;8.20;100.00;101934.25;4993352;28;20026;-92
2023/02/03 04:57:39;;;;;;;16.65;3.20;;;;;;;8.23;100.00;101921.31;4993267;28;20389;-92
2023/02/03 05:00:05;;;;;;;14.13;2.50;;;;;;;8.23;100.00;101918.75;4993102;28;20018;-92
2023/02/03 05:02:31;;;;;;;11.10;1.80;;;;;;;8.30;100.00;101925.44;4991925;28;20121;-92
2023/02/03 05:04:56;;;;;;;13.23;1.48;;;;;;;8.29;100.00;101934.88;4991598;28;20105;-92
2023/02/03 05:07:21;;;;;;;12.57;1.90;;;;;;;8.28;100.00;101928.03;4992925;28;20093;-92
2023/02/03 05:09:47;;;;;;;9.35;2.28;;;;;;;8.33;100.00;101913.34;4993074;28;20041;-92
2023/02/03 05:12:12;;;;;;;10.73;1.58;;;;;;;8.40;100.00;101908.94;4991824;28;20373;-91
2023/02/03 05:14:38;;;;;;;13.90;2.10;;;;;;;8.40;100.00;101903.78;4992886;28;20117;-92
2023/02/03 05:17:03;;;;;;;14.70;1.75;;;;;;;8.41;100.00;101913.19;4992870;28;20428;-93
2023/02/03 05:19:29;;;;;;;19.02;2.70;;;;;;;8.34;100.00;101896.19;4991324;28;20049;-92
2023/02/03 05:21:54;;;;;;;7.78;2.25;;;;;;;8.33;100.00;101915.06;4992535;28;20034;-91
2023/02/03 05:24:20;;;;;;;9.23;1.70;;;;;;;8.28;100.00;101922.06;4991089;28;20030;-92
2023/02/03 05:26:45;;;;;;;12.40;1.52;;;;;;;8.26;100.00;101924.66;4992916;28;20489;-92
2023/02/03 05:29:11;;;;;;;5.68;1.17;;;;;;;8.36;100.00;101933.00;4992906;28;20112;-92
2023/02/03 05:31:36;;;;;;;12.15;1.88;;;;;;;8.29;100.00;101929.75;4991571;28;20089;-92
2023/02/03 05:34:02;;;;;;;9.77;1.55;;;;;;;8.27;100.00;101933.25;4990599;28;20109;-91
2023/02/03 05:36:27;;;;;;;9.85;1.55;;;;;;;8.34;100.00;101937.34;4991431;28;20038;-92
2023/02/03 05:38:53;;;;;;;8.10;1.63;;;;;;;8.26;100.00;101941.81;4991370;28;20394;-93
2023/02/03 05:44:02;;;;;;;13.75;1.30;;;;;;;8.37;100.00;101947.56;4992601;28;20052;-92
2023/02/03 05:46:27;;;;;;;11.23;1.10;;;;;;;8.21;100.00;101941.91;4993139;28;20443;-92
2023/02/03 05:48:53;;;;;;;10.15;1.52;;;;;;;8.29;100.00;101949.44;4990351;28;20038;-92
2023/02/03 05:51:19;;;;;;;12.50;1.50;;;;;;;8.35;100.00;101949.31;4992075;28;20027;-91
2023/02/03 05:53:45;;;;;;;12.10;1.23;;;;;;;8.16;100.00;101956.63;4992274;28;20034;-92
2023/02/03 05:56:10;;;;;;;4.22;1.17;;;;;;;8.32;100.00;101964.84;4992500;28;20034;-92
2023/02/03 05:58:36;;;;;;;15.50;2.55;;;;;;;8.14;100.00;101955.81;4992308;28;20041;-91
2023/02/03 06:01:01;;;;;;;8.27;1.92;;;;;;;8.17;100.00;101966.03;4992396;28;20027;-92
2023/02/03 06:03:26;;;;;;;7.10;1.98;;;;;;;8.22;100.00;101965.91;4991642;28;20030;-92
2023/02/03 06:05:52;;;;;;;10.55;2.55;;;;;;;7.93;100.00;101936.59;4992223;28;20030;-92
2023/02/03 06:08:18;;;;;;;10.18;2.50;;;;;;;8.24;100.00;101966.72;4992348;28;20022;-92
2023/02/03 06:10:43;;;;;;;10.35;3.47;;;;;;;8.13;100.00;101959.28;4992432;28;20042;-92
2023/02/03 06:13:14;;;;;;;11.93;2.05;;;;;;;8.15;100.00;101963.50;4991033;28;20125;-93
2023/02/03 06:15:40;;;;;;;17.33;2.55;;;;;;;8.26;100.00;101967.53;4992470;28;20236;-92
2023/02/03 06:18:06;;;;;;;14.63;2.63;;;;;;;8.22;100.00;101969.34;4990645;28;20033;-92
2023/02/03 06:20:32;;;;;;;23.85;3.00;;;;;;;8.30;100.00;101984.59;4992335;28;20030;-92
2023/02/03 06:22:58;;;;;;;14.95;3.10;;;;;;;8.08;100.00;101967.09;4991045;28;20400;-92
2023/02/03 06:25:23;;;;;;;24.13;3.22;;;;;;;8.02;100.00;101976.66;4990850;28;20026;-90
2023/02/03 06:27:50;;;;;;;19.20;3.75;;;;;;;8.06;100.00;101986.84;4992387;28;20033;-92
2023/02/03 06:30:16;;;;;;;13.93;2.67;;;;;;;8.19;100.00;101989.13;4992310;28;20769;-92
2023/02/03 06:32:42;;;;;;;11.70;3.47;;;;;;;8.12;100.00;101966.16;4992176;28;20161;-93
2023/02/03 06:35:08;;;;;;;23.10;2.95;;;;;;;8.31;100.00;101992.28;4990161;28;20452;-92
2023/02/03 06:37:59;;;;;;;17.48;2.22;;;;;;;8.22;100.00;101986.50;4995088;28;20022;-96
2023/02/03 06:40:25;;;;;;;12.30;2.38;;;;;;;8.32;100.00;101993.13;4991043;28;20034;-94
2023/02/03 06:42:50;;;;;;;16.55;1.83;;;;;;;8.18;100.00;101983.16;4995180;28;20033;-94
2023/02/03 06:45:17;;;;;;;15.98;2.08;;;;;;;8.18;100.00;101977.16;4994915;28;20065;-93
2023/02/03 06:47:44;;;;;;;16.88;2.05;;;;;;;8.27;100.00;102002.69;4995021;28;20030;-92
2023/02/03 06:50:12;;;;;;;13.90;2.90;;;;;;;8.20;100.00;101990.84;4994793;28;20034;-92
2023/02/03 06:52:38;;;;;;;11.02;1.75;;;;;;;8.13;100.00;102005.56;4992045;28;20025;-91
2023/02/03 06:55:05;;;;;;;12.35;2.22;;;;;;;8.17;100.00;102001.19;4991407;28;20400;-95
2023/02/03 06:57:31;;;;;;;12.48;1.60;;;;;;;8.18;100.00;102002.88;4994246;28;20022;-94
2023/02/03 06:59:57;;;;;;;20.02;3.75;;;;;;;8.13;100.00;102006.41;4996054;28;20026;-94
2023/02/03 07:02:22;;;;;;;9.23;2.15;;;;;;;8.10;100.00;101998.75;4990170;28;20080;-93
2023/02/03 07:04:48;;;;;;;10.63;2.08;;;;;;;8.18;100.00;102010.59;4994967;28;20033;-95
2023/02/03 07:07:13;;;;;;;7.80;2.10;;;;;;;8.12;100.00;102003.84;4990741;28;20131;-94
2023/02/03 07:09:39;;;;;;;9.57;2.13;;;;;;;8.15;100.00;102014.94;4991922;28;20030;-93
2023/02/03 07:12:06;;;;;;;16.15;2.45;;;;;;;8.14;100.00;102005.53;4995189;28;20033;-95
2023/02/03 07:14:34;;;;;;;12.05;3.10;;;;;;;8.23;100.00;102027.63;4990434;28;20038;-94
2023/02/03 07:17:01;;;;;;;14.40;2.58;;;;;;;8.06;100.00;102019.44;4994133;28;20037;-93
2023/02/03 07:19:27;;;;;;;15.45;2.53;;;;;;;8.06;100.00;102025.41;4992696;28;20037;-94
2023/02/03 07:21:52;;;;;;;19.63;4.38;;;;;;;8.03;100.00;102020.34;4995415;28;20030;-93
2023/02/03 07:24:18;;;;;;;16.33;3.20;;;;;;;8.11;100.00;102031.31;4990309;28;20030;-93
2023/02/03 07:26:43;;;;;;;17.33;4.03;;;;;;;8.08;100.00;102018.50;4993232;28;20037;-93
2023/02/03 07:29:09;;;;;;;11.40;3.80;;;;;;;8.13;100.00;102021.84;4993884;28;20109;-93
2023/02/03 07:31:34;;;;;;;13.70;3.45;;;;;;;8.03;100.00;102024.66;4993994;28;20022;-91
2023/02/03 07:34:00;;;;;;;18.60;4.53;;;;;;;8.01;100.00;102021.25;4992637;28;20058;-93
2023/02/03 07:36:27;;;;;;;7.75;3.63;;;;;;;8.13;100.00;102029.53;4993953;28;20018;-93
2023/02/03 07:38:53;;;;;;;14.73;4.07;;;;;;;8.14;100.00;102017.53;4994075;28;20026;-93
2023/02/03 07:41:19;;;;;;;20.38;4.93;;;;;;;8.29;100.00;102042.06;4995042;28;20547;-93
2023/02/03 07:43:44;;;;;;;14.65;4.22;;;;;;;8.13;100.00;102042.41;4993606;28;20053;-93
2023/02/03 07:46:10;;;;;;;19.75;5.15;;;;;;;8.13;100.00;102047.53;4993703;28;20026;-92
2023/02/03 07:48:36;;;;;;;18.52;5.20;;;;;;;8.11;100.00;102038.19;4992893;28;20129;-92
2023/02/03 07:51:01;;;;;;;13.20;4.15;;;;;;;8.17;100.00;102038.06;4993568;28;20502;-94
2023/02/03 07:53:27;;;;;;;15.25;4.25;;;;;;;8.23;100.00;102057.66;4993501;28;20058;-93
2023/02/03 07:55:52;;;;;;;15.77;3.95;;;;;;;8.13;100.00;102055.25;4993663;28;20052;-92
2023/02/03 07:58:18;;;;;;;19.17;4.50;;;;;;;8.24;100.00;102069.63;4994690;28;20045;-93
2023/02/03 08:00:44;;;;;;;15.80;3.88;;;;;;;8.26;100.00;102062.72;4994618;28;20026;-93
2023/02/03 08:03:09;;;;;;;9.50;3.53;;;;;;;8.32;100.00;102070.31;4992766;28;20027;-93
2023/02/03 08:05:35;;;;;;;13.90;3.13;;;;;;;8.31;100.00;102074.59;4993160;28;20031;-93
2023/02/03 08:08:00;;;;;;;14.60;2.75;;;;;;;8.43;100.00;102081.22;4994633;28;20034;-93
2023/02/03 08:10:26;;;;;;;14.60;2.78;;;;;;;8.41;100.00;102061.56;4993260;28;20476;-93
2023/02/03 08:12:55;;;;;;;11.05;2.33;;;;;;;8.56;100.00;102082.66;4992274;28;20018;-93
2023/02/03 08:15:21;;;;;;;11.75;2.65;;;;;;;8.37;100.00;102060.75;4994300;28;20499;-93
2023/02/03 08:17:48;;;;;;;13.52;3.05;;;;;;;8.54;100.00;102088.72;4992913;28;20026;-93
2023/02/03 08:20:15;;;;;;;15.15;4.38;;;;;;;8.55;100.00;102080.13;4994364;28;20026;-93
2023/02/03 08:22:40;;;;;;;20.85;5.15;;;;;;;8.64;100.00;102091.94;4992859;28;20041;-93
2023/02/03 08:25:07;;;;;;;18.55;2.40;;;;;;;8.64;100.00;102085.06;4992755;28;20464;-92
2023/02/03 08:27:32;;;;;;;13.45;2.53;;;;;;;8.74;100.00;102101.13;4991399;28;20448;-93
2023/02/03 08:29:58;;;;;;;12.95;2.30;;;;;;;8.70;100.00;102107.22;4993961;28;20023;-93
2023/02/03 08:32:25;;;;;;;16.17;2.20;;;;;;;8.76;100.00;102101.97;4994124;28;20034;-94
2023/02/03 08:34:51;;;;;;;11.32;3.22;;;;;;;8.78;100.00;102105.34;4992806;28;20023;-93
2023/02/03 08:37:19;;;;;;;23.92;4.18;;;;;;;8.71;100.00;102093.50;4993760;28;20026;-93
2023/02/03 08:39:45;;;;;;;16.00;3.35;;;;;;;8.83;100.00;102095.78;4993976;28;20031;-94
2023/02/03 08:42:11;;;;;;;23.38;4.72;;;;;;;8.70;100.00;102084.91;4992553;28;20052;-94
2023/02/03 08:44:38;;;;;;;22.20;3.55;;;;;;;8.80;100.00;102106.13;4992842;28;20480;-93
2023/02/03 08:47:04;;;;;;;21.80;5.93;;;;;;;8.83;100.00;102124.09;4991539;28;20030;-93
2023/02/03 08:49:30;;;;;;;16.30;4.05;;;;;;;8.75;100.00;102123.41;4992459;28;20061;-93
2023/02/03 08:51:56;;;;;;;16.63;5.20;;;;;;;8.90;100.00;102137.66;4992541;28;20108;-93
2023/02/03 08:54:23;;;;;;;25.05;5.05;;;;;;;8.78;100.00;102115.66;4993518;28;20480;-92
2023/02/03 08:56:49;;;;;;;17.88;3.35;;;;;;;8.96;100.00;102122.91;4993523;28;20025;-94
2023/02/03 08:59:15;;;;;;;17.27;5.57;;;;;;;8.97;100.00;102116.03;4992671;28;20030;-93
2023/02/03 09:01:44;;;;;;;17.13;2.85;;;;;;;9.12;100.00;102123.41;4991770;28;20543;-93
2023/02/03 09:04:11;;;;;;;10.82;3.13;;;;;;;9.38;100.00;102134.78;4992535;28;20077;-93
2023/02/03 09:06:37;;;;;;;19.02;4.07;;;;;;;9.61;100.00;102134.22;4991549;28;20030;-94
2023/02/03 09:09:03;;;;;;;16.52;4.03;;;;;;;9.63;100.00;102135.00;4992246;28;20027;-93
2023/02/03 09:11:29;;;;;;;14.88;3.83;;;;;;;9.59;100.00;102130.84;4993397;28;20026;-93
2023/02/03 09:13:56;;;;;;;9.80;3.38;;;;;;;9.83;100.00;102127.59;4992076;28;20104;-93
2023/02/03 09:16:23;;;;;;;14.07;4.38;;;;;;;9.62;100.00;102130.75;4993315;28;20522;-94
2023/02/03 09:18:49;;;;;;;21.67;4.60;;;;;;;9.82;100.00;102107.84;4991841;28;20034;-94
2023/02/03 09:21:19;;;;;;;20.77;3.72;;;;;;;10.14;100.00;102120.72;4992940;28;20117;-93
2023/02/03 09:23:44;;;;;;;17.65;4.68;;;;;;;10.37;99.86;102128.69;4989340;28;20037;-92
2023/02/03 09:26:13;;;;;;;11.80;4.80;;;;;;;10.70;97.01;102129.41;4982039;28;20030;-92
2023/02/03 09:28:39;;;;;;;13.45;3.83;;;;;;;10.73;95.83;102123.31;4989403;28;20018;-92
2023/02/03 09:31:06;;;;;;;6.70;2.50;;;;;;;10.60;95.42;102130.56;4971357;28;20523;-92
2023/02/03 09:33:33;;;;;;;15.32;3.53;;;;;;;10.42;96.95;102138.88;4972470;28;20015;-92
2023/02/03 09:35:58;;;;;;;18.13;5.45;;;;;;;10.44;97.39;102144.84;4978942;28;20019;-92
2023/02/03 09:38:24;;;;;;;18.35;2.38;;;;;;;10.34;97.73;102159.75;4977460;28;20088;-92
2023/02/03 09:40:53;;;;;;;15.70;4.78;;;;;;;10.20;99.46;102160.09;4977543;28;20018;-92
2023/02/03 09:43:34;;;;;;;12.13;2.97;;;;;;;9.74;100.00;102174.25;4972308;28;20022;-91
2023/02/03 09:46:25;;;;;;;16.42;3.47;;;;;;;9.80;100.00;102174.09;4972697;28;20106;-91
2023/02/03 09:49:05;;;;;;;35.97;12.93;;;;;;;9.88;100.00;102186.78;4972044;28;20049;-91
2023/02/03 09:51:41;;;;;;;16.65;4.25;;;;;;;9.89;100.00;102187.63;4971097;28;20021;-91
2023/02/03 09:54:25;;;;;;;17.00;1.95;;;;;;;9.66;100.00;102196.81;4985706;28;20532;-91
2023/02/03 09:56:54;;;;;;;8.63;2.90;;;;;;;9.76;100.00;102192.28;4990993;28;20034;-92
2023/02/03 09:59:21;;;;;;;13.13;2.72;;;;;;;9.65;100.00;102190.78;4990247;28;20484;-91
2023/02/03 10:01:57;;;;;;;11.70;2.08;;;;;;;9.83;100.00;102201.53;4990018;28;20429;-93
2023/02/03 10:04:40;;;;;;;9.55;2.25;;;;;;;9.76;100.00;102203.44;4990050;28;20072;-92
2023/02/03 10:07:18;;;;;;;11.82;2.90;;;;;;;9.86;100.00;102215.19;4991290;28;20032;-92
2023/02/03 10:10:02;;;;;;;11.68;3.42;;;;;;;9.88;100.00;102217.75;4992063;28;20022;-92
2023/02/03 10:12:53;;;;;;;8.85;1.90;;;;;;;9.89;100.00;102219.41;4995272;28;20022;-92
2023/02/03 10:15:38;;;;;;;7.77;2.20;;;;;;;9.84;100.00;102227.28;4991375;28;20019;-93
2023/02/03 10:18:23;;;;;;;11.43;1.70;;;;;;;9.94;100.00;102221.88;4988537;28;20296;-92
2023/02/03 10:21:02;;;;;;;15.60;2.75;;;;;;;10.10;100.00;102223.19;4975839;28;20397;-92
2023/02/03 10:23:37;;;;;;;11.02;2.05;;;;;;;9.93;100.00;102207.31;4995433;28;20030;-92
2023/02/03 10:26:06;;;;;;;12.98;2.15;;;;;;;10.07;100.00;102238.72;4994568;28;20044;-92
2023/02/03 10:28:38;;;;;;;10.10;2.45;;;;;;;10.11;100.00;102224.03;4994138;28;20343;-92
2023/02/03 10:31:12;;;;;;;;;;;;;;;10.09;100.00;102242.09;4975879;28;20038;-91
2023/02/03 10:33:37;;;;;;;11.77;2.63;;;;;;;10.18;100.00;102236.72;4992145;28;19926;-91
2023/02/03 10:36:30;;;;;;;10.82;2.50;;;;;;;10.01;100.00;102218.25;4995457;28;20396;-92
2023/02/03 10:39:22;;;;;;;13.20;2.78;;;;;;;10.12;100.00;102242.06;4995617;28;20034;-91
2023/02/03 10:41:47;;;;;;;9.82;2.10;;;;;;;9.97;100.00;102238.16;4976436;28;20081;-91
2023/02/03 10:44:14;;;;;;;11.15;2.13;;;;;;;10.07;100.00;102234.44;4994261;28;20388;-92
2023/02/03 10:46:42;;;;;;;10.52;2.28;;;;;;;9.90;100.00;102246.94;4993643;28;20117;-91
2023/02/03 10:49:13;;;;;;;11.75;2.10;;;;;;;10.01;100.00;102233.72;4994836;28;20023;-91
2023/02/03 10:51:48;;;;;;;8.52;2.17;;;;;;;10.03;100.00;102247.44;4992977;28;20084;-91
2023/02/03 10:54:32;;;;;;;8.27;2.15;;;;;;;10.25;100.00;102242.56;4993845;28;20460;-91
2023/02/03 10:57:12;;;;;;;14.65;2.25;;;;;;;10.10;100.00;102253.31;4989424;28;20113;-91
2023/02/03 10:59:44;;;;;;;10.80;2.95;;;;;;;10.25;100.00;102256.31;4976008;28;20551;-91
2023/02/03 11:02:20;;;;;;;15.45;3.50;;;;;;;10.24;100.00;102241.72;4993464;28;20112;-91
2023/02/03 11:04:45;;;;;;;12.10;2.67;;;;;;;10.28;100.00;102253.66;4994383;28;20035;-91
2023/02/03 11:07:24;;;;;;;8.48;2.63;;;;;;;10.44;100.00;102273.91;4994169;28;20065;-91
2023/02/03 11:09:49;;;;;;;9.25;2.90;;;;;;;10.40;100.00;102251.66;4994171;28;20050;-91
2023/02/03 11:12:18;;;;;;;8.85;2.75;;;;;;;10.70;100.00;102274.03;4985414;28;20037;-91
2023/02/03 11:14:49;;;;;;;12.48;2.92;;;;;;;10.63;100.00;102251.84;4975792;28;20392;-91
2023/02/03 11:17:28;;;;;;;7.47;2.13;;;;;;;10.54;99.83;102249.53;4986493;28;20027;-92
2023/02/03 11:20:05;;;;;;;7.68;2.03;;;;;;;10.66;98.38;102256.09;4983739;28;20125;-91
2023/02/03 11:22:35;;;;;;;8.95;1.80;;;;;;;10.64;98.67;102258.69;4984376;28;20030;-92
2023/02/03 11:25:04;;;;;;;8.27;1.95;;;;;;;10.48;98.90;102239.34;5007335;28;20030;-91
2023/02/03 11:27:32;;;;;;;8.57;2.20;;;;;;;10.48;99.42;102247.09;4994541;28;20030;-92
2023/02/03 11:30:14;;;;;;;7.28;1.67;;;;;;;10.75;98.24;102250.63;4988720;28;20110;-92
2023/02/03 11:32:42;;;;;;;12.82;2.05;;;;;;;10.78;98.08;102242.81;4981939;28;20481;-91